createdAt,value
2022-08-09T00:00:59.048Z,72.40
2022-08-09T00:04:06.250Z,72.32
2022-08-09T00:06:23.295Z,71.85
2022-08-09T00:08:57.008Z,74.49
2022-08-09T00:12:02.876Z,73.71
2022-08-09T00:14:21.928Z,72.62
2022-08-09T00:17:05.403Z,73.58
2022-08-09T00:19:33.941Z,73.30
2022-08-09T00:22:03.493Z,73.50
2022-08-09T00:24:32.917Z,73.60
2022-08-09T00:27:03.969Z,74.63
2022-08-09T00:30:10.021Z,74.24
2022-08-09T00:32:25.376Z,73.91
2022-08-09T00:34:53.810Z,74.55
2022-08-09T00:37:22.189Z,74.50
2022-08-09T00:40:13.128Z,74.76
2022-08-09T00:44:14.162Z,75.36
2022-08-09T00:45:30.519Z,76.02
2022-08-09T00:48:04.345Z,76.42
2022-08-09T00:50:37.864Z,76.78
2022-08-09T00:53:10.582Z,76.54
2022-08-09T00:56:04.718Z,77.00
2022-08-09T00:58:34.449Z,76.98
2022-08-09T01:01:08.129Z,77.57
2022-08-09T01:03:51.416Z,77.28
2022-08-09T01:06:54.381Z,79.29
2022-08-09T01:09:36.478Z,78.63
2022-08-09T01:12:16.440Z,79.21
2022-08-09T01:15:05.883Z,79.25
2022-08-09T01:17:47.184Z,79.25
2022-08-09T01:20:25.932Z,79.56
2022-08-09T01:24:02.744Z,79.66
2022-08-09T01:26:57.390Z,79.59
2022-08-09T01:29:40.878Z,80.93
2022-08-09T01:32:29.783Z,80.47
2022-08-09T01:35:18.084Z,80.60
2022-08-09T01:38:09.316Z,80.60
2022-08-09T01:40:44.911Z,80.79
2022-08-09T01:43:24.357Z,81.88
2022-08-09T01:45:58.046Z,81.29
2022-08-09T01:48:31.429Z,81.46
2022-08-09T01:51:02.585Z,82.07
2022-08-09T01:53:41.410Z,83.37
2022-08-09T01:56:13.096Z,83.10
2022-08-09T01:58:49.021Z,83.69
2022-08-09T02:01:20.013Z,84.61
2022-08-09T02:04:01.027Z,84.49
2022-08-09T02:06:58.434Z,85.27
2022-08-09T02:09:41.895Z,85.33
2022-08-09T02:12:21.188Z,86.23
2022-08-09T02:14:56.005Z,86.33
2022-08-09T02:17:59.457Z,85.95
2022-08-09T02:20:26.494Z,86.00
2022-08-09T02:23:09.836Z,85.63
2022-08-09T02:25:42.449Z,86.10
2022-08-09T02:28:24.414Z,85.65
2022-08-09T02:31:05.781Z,86.59
2022-08-09T02:34:06.463Z,87.15
2022-08-09T02:36:34.371Z,87.26
2022-08-09T02:39:14.436Z,88.15
2022-08-09T02:41:56.014Z,87.96
2022-08-09T02:44:32.437Z,87.55
2022-08-09T02:47:08.320Z,87.71
2022-08-09T02:49:46.946Z,87.19
2022-08-09T02:52:35.850Z,87.94
2022-08-09T02:55:20.102Z,87.16
2022-08-09T02:57:59.772Z,86.99
2022-08-09T03:00:57.692Z,88.17
2022-08-09T03:04:05.771Z,88.57
2022-08-09T03:06:22.718Z,89.68
2022-08-09T03:08:52.766Z,89.85
2022-08-09T03:12:04.877Z,88.68
2022-08-09T03:14:14.594Z,89.56
2022-08-09T03:16:48.137Z,88.26
2022-08-09T03:19:52.471Z,87.42
2022-08-09T03:22:12.106Z,88.88
2022-08-09T03:25:05.797Z,87.12
2022-08-09T03:27:45.218Z,87.61
2022-08-09T03:30:29.183Z,86.97
2022-08-09T03:33:12.953Z,86.46
2022-08-09T03:36:13.035Z,86.76
2022-08-09T03:38:42.108Z,87.27
2022-08-09T03:41:15.192Z,86.49
2022-08-09T03:44:03.265Z,86.81
2022-08-09T03:46:33.513Z,86.61
2022-08-09T03:49:08.480Z,87.08
2022-08-09T03:51:58.410Z,86.83
2022-08-09T03:54:34.523Z,86.71
2022-08-09T03:57:18.008Z,86.03
2022-08-09T03:59:54.601Z,86.26
2022-08-09T04:02:28.342Z,86.43
2022-08-09T04:05:00.773Z,86.30
2022-08-09T04:07:33.738Z,85.97
2022-08-09T04:10:28.473Z,85.84
2022-08-09T04:13:04.046Z,85.79
2022-08-09T04:16:17.205Z,86.24
2022-08-09T04:18:22.091Z,85.81
2022-08-09T04:20:51.335Z,85.93
2022-08-09T04:23:24.712Z,85.49
2022-08-09T04:25:54.703Z,85.12
2022-08-09T04:28:33.195Z,85.15
2022-08-09T04:31:09.333Z,84.25
2022-08-09T04:33:51.981Z,84.50
2022-08-09T04:36:27.468Z,84.15
2022-08-09T04:39:00.768Z,83.77
2022-08-09T04:41:32.121Z,84.84
2022-08-09T04:44:06.664Z,84.88
2022-08-09T04:46:58.862Z,85.17
2022-08-09T04:49:53.184Z,83.86
2022-08-09T04:52:26.133Z,84.20
2022-08-09T04:55:04.162Z,84.63
2022-08-09T04:57:54.409Z,83.75
2022-08-09T05:00:24.564Z,83.21
2022-08-09T05:02:53.230Z,84.19
2022-08-09T05:05:51.879Z,83.54
2022-08-09T05:08:14.026Z,83.17
2022-08-09T05:10:45.608Z,82.30
2022-08-09T05:13:14.796Z,82.18
2022-08-09T05:15:48.163Z,81.48
2022-08-09T05:18:42.843Z,80.47
2022-08-09T05:21:10.082Z,79.59
2022-08-09T05:23:59.805Z,80.04
2022-08-09T05:26:45.344Z,79.84
2022-08-09T05:29:21.562Z,78.83
2022-08-09T05:31:57.206Z,78.08
2022-08-09T05:34:31.358Z,75.83
2022-08-09T05:37:06.199Z,75.89
2022-08-09T05:39:43.302Z,76.29
2022-08-09T05:42:21.606Z,74.37
2022-08-09T05:44:52.193Z,74.10
2022-08-09T05:47:21.725Z,73.21
2022-08-09T05:50:25.968Z,72.64
2022-08-09T05:52:41.971Z,70.32
2022-08-09T05:55:20.929Z,69.74
2022-08-09T05:57:56.741Z,68.19
2022-08-09T06:00:28.605Z,69.43
2022-08-09T06:02:58.729Z,68.65
2022-08-09T06:05:50.499Z,67.45
2022-08-09T06:08:19.331Z,66.21
2022-08-09T06:10:52.954Z,61.79
2022-08-09T06:13:24.202Z,59.75
2022-08-09T06:15:53.305Z,56.97
2022-08-09T06:18:24.902Z,56.35
2022-08-09T06:20:57.650Z,53.95
2022-08-09T06:23:58.514Z,54.59
2022-08-09T06:26:20.805Z,52.80
2022-08-09T06:29:00.612Z,53.75
2022-08-09T06:31:39.862Z,52.01
2022-08-09T06:34:23.480Z,52.50
2022-08-09T06:36:58.917Z,47.58
2022-08-09T06:39:57.752Z,48.35
2022-08-09T06:42:19.860Z,47.49
2022-08-09T06:44:54.028Z,48.13
2022-08-09T06:47:23.756Z,48.57
2022-08-09T06:50:14.221Z,48.79
2022-08-09T06:52:47.070Z,47.85
2022-08-09T06:55:17.160Z,46.78
2022-08-09T06:58:02.643Z,46.16
2022-08-09T07:00:54.686Z,47.63
2022-08-09T07:03:27.938Z,47.44
2022-08-09T07:06:03.816Z,43.58
2022-08-09T07:08:35.284Z,42.45
2022-08-09T07:11:06.943Z,40.67
2022-08-09T07:14:04.062Z,44.11
2022-08-09T07:16:41.533Z,44.86
2022-08-09T07:19:15.545Z,46.04
2022-08-09T07:21:55.428Z,44.48
2022-08-09T07:24:31.977Z,42.42
2022-08-09T07:27:10.921Z,43.68
2022-08-09T07:29:58.404Z,41.36
2022-08-09T07:32:33.652Z,39.91
2022-08-09T07:35:07.978Z,41.99
2022-08-09T07:37:44.068Z,42.91
2022-08-09T07:40:17.320Z,41.17
2022-08-09T07:42:55.520Z,41.65
2022-08-09T07:45:39.244Z,42.91
2022-08-09T07:48:25.678Z,40.33
2022-08-09T07:51:09.246Z,37.37
2022-08-09T07:54:05.982Z,41.70
2022-08-09T07:56:44.667Z,37.62
2022-08-09T07:59:34.572Z,40.24
2022-08-09T08:02:07.440Z,37.85
2022-08-09T08:04:39.009Z,36.50
2022-08-09T08:07:27.052Z,36.82
2022-08-09T08:10:08.958Z,35.20
2022-08-09T08:12:45.055Z,36.45
2022-08-09T08:15:16.705Z,39.74
2022-08-09T08:17:53.349Z,35.16
2022-08-09T08:20:29.337Z,37.91
2022-08-09T08:23:16.324Z,35.32
2022-08-09T08:25:48.208Z,35.85
2022-08-09T08:28:32.374Z,36.64
2022-08-09T08:31:10.482Z,36.83
2022-08-09T08:33:53.353Z,33.24
2022-08-09T08:36:29.640Z,35.74
2022-08-09T08:39:00.334Z,32.56
2022-08-09T08:41:41.998Z,36.81
2022-08-09T08:44:27.010Z,33.43
2022-08-09T08:47:05.212Z,33.62
2022-08-09T08:49:48.132Z,34.05
2022-08-09T08:55:11.547Z,32.87
2022-08-09T08:57:44.059Z,35.57
2022-08-09T09:00:29.958Z,31.90
2022-08-09T09:03:11.325Z,32.85
2022-08-09T09:05:58.437Z,30.79
2022-08-09T09:08:37.993Z,34.72
2022-08-09T09:11:13.792Z,32.67
2022-08-09T09:13:56.642Z,32.64
2022-08-09T09:16:34.227Z,34.58
2022-08-09T09:22:07.662Z,30.69
2022-08-09T09:24:43.186Z,32.35
2022-08-09T09:28:03.126Z,32.38
2022-08-09T09:30:37.329Z,31.18
2022-08-09T09:33:15.931Z,31.20
2022-08-09T09:36:01.329Z,30.78
2022-08-09T09:38:49.566Z,31.62
2022-08-09T09:41:48.960Z,29.73
2022-08-09T09:44:27.916Z,32.00
2022-08-09T09:47:09.403Z,30.50
2022-08-09T09:50:13.717Z,30.62
2022-08-09T09:52:36.366Z,30.91
2022-08-09T09:55:27.713Z,33.07
2022-08-09T09:58:16.331Z,28.77
2022-08-09T10:00:55.527Z,30.57
2022-08-09T10:03:43.231Z,34.64
2022-08-09T10:06:13.233Z,31.78
2022-08-09T10:08:55.123Z,28.65
2022-08-09T10:11:59.525Z,32.56
2022-08-09T10:14:33.199Z,27.85
2022-08-09T10:17:39.610Z,29.04
2022-08-09T10:20:02.666Z,28.26
2022-08-09T10:22:36.754Z,28.41
2022-08-09T10:25:11.619Z,30.02
2022-08-09T10:27:45.079Z,29.17
2022-08-09T10:34:05.202Z,32.20
2022-08-09T10:36:11.476Z,28.49
2022-08-09T10:38:56.801Z,28.49
2022-08-09T10:41:28.821Z,28.55
2022-08-09T10:44:01.769Z,28.41
2022-08-09T10:47:04.045Z,31.53
2022-08-09T10:49:59.448Z,28.62
2022-08-09T10:53:01.427Z,27.50
2022-08-09T10:55:35.821Z,25.93
2022-08-09T10:58:33.532Z,31.24
2022-08-09T11:03:03.033Z,26.23
2022-08-09T11:04:29.717Z,26.99
2022-08-09T11:07:56.984Z,26.62
2022-08-09T11:11:00.774Z,25.96
2022-08-09T11:13:50.296Z,27.74
2022-08-09T11:16:37.042Z,27.44
2022-08-09T11:19:10.109Z,27.11
2022-08-09T11:22:16.909Z,28.01
2022-08-09T11:25:09.835Z,27.14
2022-08-09T11:28:03.972Z,26.37
2022-08-09T11:30:37.626Z,27.64
2022-08-09T11:33:25.455Z,27.71
2022-08-09T11:35:57.974Z,29.15
2022-08-09T11:38:32.926Z,26.77
2022-08-09T11:41:06.472Z,27.71
2022-08-09T11:43:42.817Z,25.71
2022-08-09T11:46:11.763Z,26.88
2022-08-09T11:48:50.506Z,25.62
2022-08-09T11:51:37.944Z,28.42
2022-08-09T11:54:27.754Z,28.97
2022-08-09T11:57:47.524Z,25.41
2022-08-09T12:00:28.180Z,26.93
2022-08-09T12:02:58.560Z,27.10
2022-08-09T12:05:42.189Z,26.55
2022-08-09T12:08:19.829Z,27.54
2022-08-09T12:10:54.919Z,26.89
2022-08-09T12:14:09.123Z,26.86
2022-08-09T12:16:37.138Z,27.94
2022-08-09T12:19:09.628Z,25.41
2022-08-09T12:21:48.456Z,27.53
2022-08-09T12:24:25.397Z,26.60
2022-08-09T12:28:59.751Z,25.26
2022-08-09T12:30:01.541Z,26.58
2022-08-09T12:32:48.439Z,25.82
2022-08-09T12:35:19.233Z,28.37
2022-08-09T12:37:52.212Z,26.32
2022-08-09T12:40:27.776Z,26.56
2022-08-09T12:42:58.143Z,26.06
2022-08-09T12:45:34.592Z,25.71
2022-08-09T12:48:20.170Z,26.72
2022-08-09T12:51:03.992Z,26.52
2022-08-09T12:53:38.779Z,26.28
2022-08-09T12:56:43.493Z,25.69
2022-08-09T12:59:10.901Z,24.68
2022-08-09T13:01:49.027Z,25.96
2022-08-09T13:04:37.196Z,25.79
2022-08-09T13:07:19.968Z,28.94
2022-08-09T13:10:03.847Z,26.81
2022-08-09T13:12:39.961Z,25.82
2022-08-09T13:15:24.857Z,26.87
2022-08-09T13:18:05.676Z,26.10
2022-08-09T13:20:50.142Z,25.86
2022-08-09T13:24:16.311Z,26.33
2022-08-09T13:26:36.928Z,24.36
2022-08-09T13:29:10.561Z,26.36
2022-08-09T13:32:19.458Z,25.67
2022-08-09T13:34:50.525Z,26.62
2022-08-09T13:37:51.387Z,26.02
2022-08-09T13:41:46.297Z,25.47
2022-08-09T13:42:59.456Z,25.86
2022-08-09T13:46:42.625Z,25.52
2022-08-09T13:48:21.325Z,25.35
2022-08-09T13:50:49.512Z,23.67
2022-08-09T13:53:17.996Z,23.64
2022-08-09T13:55:47.932Z,24.76
2022-08-09T13:58:16.187Z,25.89
2022-08-09T14:00:48.298Z,25.11
2022-08-09T14:04:01.727Z,25.10
2022-08-09T14:06:19.273Z,25.39
2022-08-09T14:08:54.561Z,27.75
2022-08-09T14:11:23.694Z,25.73
2022-08-09T14:14:23.155Z,26.36
2022-08-09T14:16:40.382Z,26.77
2022-08-09T14:19:10.364Z,24.76
2022-08-09T14:21:39.013Z,24.88
2022-08-09T14:24:18.673Z,25.64
2022-08-09T14:26:51.170Z,27.03
2022-08-09T14:30:03.981Z,25.65
2022-08-09T14:32:11.404Z,24.55
2022-08-09T14:34:45.723Z,24.91
2022-08-09T14:37:14.304Z,24.74
2022-08-09T14:39:48.292Z,24.35
2022-08-09T14:42:31.102Z,26.10
2022-08-09T14:46:45.882Z,24.94
2022-08-09T14:47:57.257Z,26.39
2022-08-09T14:50:31.653Z,26.46
2022-08-09T14:53:01.677Z,26.24
2022-08-09T14:55:32.783Z,25.63
2022-08-09T14:58:03.749Z,24.29
2022-08-09T15:00:36.202Z,25.97
2022-08-09T15:03:07.306Z,24.94
2022-08-09T15:05:39.868Z,24.42
2022-08-09T15:08:19.100Z,25.40
2022-08-09T15:11:00.443Z,25.68
2022-08-09T15:13:48.110Z,25.03
2022-08-09T15:16:19.599Z,26.08
2022-08-09T15:18:49.554Z,26.96
2022-08-09T15:21:58.056Z,26.35
2022-08-09T15:24:12.838Z,27.37
2022-08-09T15:26:46.302Z,27.66
2022-08-09T15:30:58.761Z,27.40
2022-08-09T15:32:04.790Z,29.07
2022-08-09T15:34:35.314Z,29.90
2022-08-09T15:37:37.968Z,32.78
2022-08-09T15:40:19.969Z,30.60
2022-08-09T15:42:50.859Z,30.18
2022-08-09T15:45:29.332Z,30.08
2022-08-09T15:48:05.239Z,29.74
2022-08-09T15:50:39.357Z,30.62
2022-08-09T15:53:17.922Z,30.48
2022-08-09T15:56:28.566Z,30.63
2022-08-09T15:58:50.021Z,29.59
2022-08-09T16:01:19.670Z,28.37
2022-08-09T16:03:50.995Z,28.57
2022-08-09T16:06:34.829Z,28.75
2022-08-09T16:09:06.091Z,29.98
2022-08-09T16:11:34.584Z,31.84
2022-08-09T16:14:07.867Z,33.09
2022-08-09T16:16:41.981Z,33.41
2022-08-09T16:19:14.592Z,31.87
2022-08-09T16:21:48.571Z,31.13
2022-08-09T16:24:32.927Z,31.76
2022-08-09T16:27:04.850Z,31.41
2022-08-09T16:29:36.894Z,33.62
2022-08-09T16:32:19.329Z,32.63
2022-08-09T16:34:58.137Z,32.51
2022-08-09T16:37:54.095Z,33.31
2022-08-09T16:40:29.644Z,32.34
2022-08-09T16:43:07.378Z,33.29
2022-08-09T16:45:41.682Z,33.20
2022-08-09T16:48:38.673Z,33.88
2022-08-09T16:51:08.439Z,32.79
2022-08-09T16:54:02.268Z,32.98
2022-08-09T16:56:31.582Z,32.91
2022-08-09T16:59:01.033Z,32.75
2022-08-09T17:01:33.828Z,32.18
2022-08-09T17:04:05.426Z,32.86
2022-08-09T17:08:41.302Z,32.82
2022-08-09T17:09:45.441Z,32.94
2022-08-09T17:12:12.993Z,33.47
2022-08-09T17:14:47.936Z,33.35
2022-08-09T17:17:26.744Z,33.65
2022-08-09T17:20:29.075Z,33.56
2022-08-09T17:22:52.137Z,33.93
2022-08-09T17:25:23.370Z,34.20
2022-08-09T17:27:55.240Z,34.18
2022-08-09T17:30:26.497Z,34.58
2022-08-09T17:33:01.428Z,35.18
2022-08-09T17:35:41.211Z,36.42
2022-08-09T17:38:30.764Z,37.04
2022-08-09T17:41:00.069Z,37.51
2022-08-09T17:43:34.618Z,37.75
2022-08-09T17:46:09.502Z,37.27
2022-08-09T17:48:40.300Z,37.52
2022-08-09T17:51:18.087Z,37.66
2022-08-09T17:53:53.645Z,37.62
2022-08-09T17:56:28.803Z,37.86
2022-08-09T17:59:18.846Z,38.49
2022-08-09T18:02:06.098Z,38.28
2022-08-09T18:04:43.855Z,38.41
2022-08-09T18:07:22.922Z,38.47
2022-08-09T18:10:05.048Z,39.75
2022-08-09T18:12:40.735Z,39.67
2022-08-09T18:16:05.705Z,40.08
2022-08-09T18:18:25.952Z,40.49
2022-08-09T18:21:18.865Z,40.13
2022-08-09T18:24:12.795Z,40.90
2022-08-09T18:27:01.173Z,42.24
2022-08-09T18:30:39.252Z,42.74
2022-08-09T18:32:45.333Z,43.10
2022-08-09T18:35:59.556Z,42.68
2022-08-09T18:38:16.767Z,43.98
2022-08-09T18:40:46.383Z,44.81
2022-08-09T18:43:15.845Z,43.72
2022-08-09T18:46:50.843Z,44.65
2022-08-09T18:48:36.823Z,44.48
2022-08-09T18:51:11.678Z,45.26
2022-08-09T18:54:00.644Z,45.48
2022-08-09T18:56:37.603Z,45.86
2022-08-09T18:59:07.109Z,46.64
2022-08-09T19:01:43.586Z,45.54
2022-08-09T19:04:24.903Z,46.66
2022-08-09T19:07:05.638Z,46.20
2022-08-09T19:10:16.768Z,46.54
2022-08-09T19:12:37.873Z,46.29
2022-08-09T19:15:08.746Z,46.24
2022-08-09T19:18:01.024Z,46.47
2022-08-09T19:20:34.377Z,46.27
2022-08-09T19:24:39.832Z,46.82
2022-08-09T19:26:29.420Z,46.51
2022-08-09T19:29:20.618Z,47.22
2022-08-09T19:31:51.479Z,46.91
2022-08-09T19:34:22.892Z,47.93
2022-08-09T19:36:56.355Z,47.31
2022-08-09T19:40:03.284Z,47.39
2022-08-09T19:42:19.519Z,48.23
2022-08-09T19:44:51.149Z,48.67
2022-08-09T19:47:23.356Z,48.87
2022-08-09T19:50:08.235Z,50.11
2022-08-09T19:52:49.472Z,48.79
2022-08-09T19:55:30.480Z,49.67
2022-08-09T19:58:15.913Z,48.87
2022-08-09T20:00:47.296Z,49.79
2022-08-09T20:04:27.901Z,49.98
2022-08-09T20:06:22.346Z,50.50
2022-08-09T20:08:56.718Z,49.73
2022-08-09T20:11:42.941Z,50.21
2022-08-09T20:17:15.279Z,49.78
2022-08-09T20:19:54.376Z,50.40
2022-08-09T20:22:32.159Z,52.20
2022-08-09T20:25:07.082Z,51.83
2022-08-09T20:27:42.233Z,51.01
2022-08-09T20:30:17.968Z,50.57
2022-08-09T20:32:54.965Z,50.97
2022-08-09T20:35:27.291Z,52.36
2022-08-09T20:38:23.454Z,51.21
2022-08-09T20:40:56.046Z,53.25
2022-08-09T20:43:28.822Z,51.66
2022-08-09T20:46:33.264Z,52.30
2022-08-09T20:48:54.123Z,52.47
2022-08-09T20:51:26.766Z,52.05
2022-08-09T20:54:00.924Z,54.93
2022-08-09T20:56:38.191Z,53.17
2022-08-09T20:59:17.327Z,54.20
2022-08-09T21:01:53.406Z,54.41
2022-08-09T21:05:54.030Z,55.22
2022-08-09T21:07:18.522Z,56.21
2022-08-09T21:09:56.383Z,55.48
2022-08-09T21:12:34.058Z,56.34
2022-08-09T21:15:05.803Z,55.21
2022-08-09T21:18:21.862Z,55.13
2022-08-09T21:20:37.007Z,55.51
2022-08-09T21:23:13.538Z,55.15
2022-08-09T21:25:56.101Z,55.26
2022-08-09T21:28:36.544Z,56.29
2022-08-09T21:31:17.580Z,57.10
2022-08-09T21:33:56.609Z,56.69
2022-08-09T21:36:31.641Z,56.78
2022-08-09T21:39:04.841Z,57.59
2022-08-09T21:42:04.188Z,57.45
2022-08-09T21:44:35.327Z,57.20
2022-08-09T21:47:10.807Z,57.87
2022-08-09T21:49:50.955Z,57.86
2022-08-09T21:52:24.710Z,58.88
2022-08-09T21:55:04.197Z,60.01
2022-08-09T21:57:58.621Z,59.31
2022-08-09T22:00:34.461Z,59.20
2022-08-09T22:03:12.501Z,59.63
2022-08-09T22:05:51.466Z,59.28
2022-08-09T22:08:24.710Z,59.60
2022-08-09T22:11:48.991Z,58.09
2022-08-09T22:13:50.343Z,59.37
2022-08-09T22:16:21.649Z,58.16
2022-08-09T22:18:54.081Z,59.06
2022-08-09T22:21:45.337Z,59.30
2022-08-09T22:24:17.006Z,59.13
2022-08-09T22:26:51.457Z,60.51
2022-08-09T22:29:26.799Z,60.59
2022-08-09T22:32:02.630Z,61.15
2022-08-09T22:34:30.918Z,60.09
2022-08-09T22:37:00.939Z,60.43
2022-08-09T22:39:57.318Z,60.70
2022-08-09T22:42:22.595Z,61.02
2022-08-09T22:48:04.634Z,61.39
2022-08-09T22:48:15.524Z,60.98
2022-08-09T22:50:33.500Z,61.61
2022-08-09T22:53:03.897Z,61.43
2022-08-09T22:56:05.920Z,62.39
2022-08-09T22:58:32.888Z,62.30
2022-08-09T23:01:03.960Z,62.09
2022-08-09T23:04:05.305Z,63.57
2022-08-09T23:06:35.461Z,62.39
2022-08-09T23:09:06.974Z,62.46
2022-08-09T23:11:36.242Z,63.12
2022-08-09T23:14:10.217Z,64.38
2022-08-09T23:16:45.912Z,64.78
2022-08-09T23:19:15.651Z,65.24
2022-08-09T23:21:44.279Z,65.39
2022-08-09T23:24:13.069Z,65.42
2022-08-09T23:26:41.998Z,65.98
2022-08-09T23:29:13.659Z,66.91
2022-08-09T23:31:42.658Z,66.94
2022-08-09T23:34:11.210Z,67.25
2022-08-09T23:36:40.760Z,65.42
2022-08-09T23:39:09.501Z,67.96
2022-08-09T23:41:38.054Z,67.54
2022-08-09T23:44:06.625Z,67.89
2022-08-09T23:46:35.016Z,67.85
2022-08-09T23:49:03.464Z,67.52
2022-08-09T23:51:32.094Z,67.72
2022-08-09T23:54:03.066Z,68.04
2022-08-09T23:56:53.115Z,67.25
2022-08-09T23:59:21.621Z,67.22
